createdAt,value
2023-05-17T00:00:14.744Z,8.46
2023-05-17T00:02:41.728Z,8.55
2023-05-17T00:05:11.652Z,8.44
2023-05-17T00:07:38.780Z,8.33
2023-05-17T00:10:06.675Z,8.37
2023-05-17T00:12:33.737Z,8.34
2023-05-17T00:15:00.732Z,8.39
2023-05-17T00:17:27.855Z,8.35
2023-05-17T00:19:54.953Z,8.25
2023-05-17T00:22:21.990Z,8.37
2023-05-17T00:24:49.198Z,8.15
2023-05-17T00:27:18.166Z,8.15
2023-05-17T00:29:45.121Z,7.98
2023-05-17T00:32:12.085Z,7.88
2023-05-17T00:34:39.355Z,7.81
2023-05-17T00:37:06.385Z,7.69
2023-05-17T00:39:33.428Z,7.43
2023-05-17T00:42:01.404Z,7.35
2023-05-17T00:44:30.473Z,7.13
2023-05-17T00:46:59.811Z,7.09
2023-05-17T00:49:28.876Z,7.09
2023-05-17T00:51:56.285Z,7.18
2023-05-17T00:54:23.621Z,7.12
2023-05-17T00:56:50.742Z,7.23
2023-05-17T00:59:17.956Z,7.19
2023-05-17T01:01:45.358Z,7.37
2023-05-17T01:04:12.549Z,7.58
2023-05-17T01:06:39.620Z,7.67
2023-05-17T01:09:07.468Z,7.47
2023-05-17T01:12:24.663Z,7.61
2023-05-17T01:15:15.177Z,7.55
2023-05-17T01:18:10.598Z,7.67
2023-05-17T01:20:43.603Z,7.62
2023-05-17T01:23:52.330Z,7.72
2023-05-17T01:26:41.285Z,7.85
2023-05-17T01:29:10.013Z,7.72
2023-05-17T01:31:37.414Z,7.65
2023-05-17T01:34:10.845Z,7.57
2023-05-17T01:36:37.783Z,7.53
2023-05-17T01:39:04.742Z,7.62
2023-05-17T01:41:42.276Z,7.74
2023-05-17T01:44:46.670Z,7.71
2023-05-17T01:47:57.039Z,7.51
2023-05-17T01:50:29.556Z,7.63
2023-05-17T01:53:07.469Z,7.45
2023-05-17T01:55:45.597Z,7.45
2023-05-17T01:58:13.316Z,7.46
2023-05-17T02:00:43.070Z,7.57
2023-05-17T02:03:21.567Z,7.50
2023-05-17T02:05:48.523Z,7.48
2023-05-17T02:08:15.451Z,7.43
2023-05-17T02:10:42.447Z,7.49
2023-05-17T02:13:09.645Z,7.54
2023-05-17T02:15:36.568Z,7.46
2023-05-17T02:18:03.572Z,7.35
2023-05-17T02:20:31.038Z,7.23
2023-05-17T02:22:58.017Z,7.37
2023-05-17T02:25:24.927Z,7.35
2023-05-17T02:27:51.918Z,7.35
2023-05-17T02:30:22.136Z,7.38
2023-05-17T02:32:49.253Z,7.42
2023-05-17T02:35:16.309Z,7.56
2023-05-17T02:37:45.379Z,7.47
2023-05-17T02:40:12.774Z,7.29
2023-05-17T02:42:39.719Z,7.30
2023-05-17T02:45:07.539Z,7.54
2023-05-17T02:47:34.592Z,7.55
2023-05-17T02:50:01.629Z,7.60
2023-05-17T02:52:28.544Z,7.74
2023-05-17T02:54:55.507Z,8.01
2023-05-17T02:57:23.497Z,7.89
2023-05-17T02:59:50.865Z,7.89
2023-05-17T03:02:17.909Z,7.88
2023-05-17T03:04:45.068Z,7.95
2023-05-17T03:07:12.482Z,8.07
2023-05-17T03:09:39.669Z,8.22
2023-05-17T03:12:07.642Z,8.22
2023-05-17T03:14:34.556Z,8.33
2023-05-17T03:17:02.707Z,8.40
2023-05-17T03:19:29.664Z,8.23
2023-05-17T03:21:56.618Z,8.32
2023-05-17T03:24:23.562Z,8.23
2023-05-17T03:26:50.558Z,8.24
2023-05-17T03:29:17.535Z,8.26
2023-05-17T03:31:44.562Z,8.47
2023-05-17T03:34:11.673Z,8.26
2023-05-17T03:36:41.829Z,8.25
2023-05-17T03:39:09.025Z,8.18
2023-05-17T03:41:36.165Z,8.18
2023-05-17T03:44:03.227Z,8.08
2023-05-17T03:46:30.166Z,7.91
2023-05-17T03:48:57.149Z,7.93
2023-05-17T03:51:24.294Z,8.09
2023-05-17T03:53:59.484Z,8.00
2023-05-17T03:56:26.475Z,8.14
2023-05-17T03:58:53.544Z,7.93
2023-05-17T04:01:20.778Z,7.83
2023-05-17T04:03:48.040Z,7.94
2023-05-17T04:06:15.212Z,8.00
2023-05-17T04:08:42.530Z,7.94
2023-05-17T04:11:15.367Z,8.06
2023-05-17T04:13:43.013Z,7.98
2023-05-17T04:16:10.911Z,8.27
2023-05-17T04:18:38.985Z,8.24
2023-05-17T04:21:06.868Z,8.12
2023-05-17T04:23:37.499Z,8.35
2023-05-17T04:26:06.342Z,8.43
2023-05-17T04:28:35.067Z,8.55
2023-05-17T04:31:02.236Z,8.49
2023-05-17T04:33:29.375Z,8.68
2023-05-17T04:35:56.820Z,8.75
2023-05-17T04:38:24.232Z,8.67
2023-05-17T04:40:52.233Z,8.99
2023-05-17T04:43:19.188Z,8.86
2023-05-17T04:45:46.453Z,9.07
2023-05-17T04:48:15.017Z,9.04
2023-05-17T04:50:47.083Z,9.09
2023-05-17T04:53:15.615Z,9.04
2023-05-17T04:55:43.245Z,9.22
2023-05-17T04:58:11.321Z,9.31
2023-05-17T05:00:38.271Z,9.16
2023-05-17T05:03:05.448Z,9.01
2023-05-17T05:05:32.438Z,8.96
2023-05-17T05:07:59.393Z,8.87
2023-05-17T05:10:28.714Z,8.91
2023-05-17T05:12:55.794Z,8.96
2023-05-17T05:15:24.859Z,8.84
2023-05-17T05:17:51.873Z,8.93
2023-05-17T05:20:20.157Z,8.96
2023-05-17T05:22:47.089Z,9.07
2023-05-17T05:25:14.049Z,8.99
2023-05-17T05:27:41.175Z,9.13
2023-05-17T05:30:08.865Z,9.28
2023-05-17T05:32:37.895Z,9.13
2023-05-17T05:35:05.996Z,9.43
2023-05-17T05:37:33.133Z,9.37
2023-05-17T05:40:00.282Z,9.60
2023-05-17T05:42:27.894Z,9.98
2023-05-17T05:44:55.966Z,10.17
2023-05-17T05:47:22.928Z,10.17
2023-05-17T05:49:49.887Z,10.41
2023-05-17T05:52:16.897Z,10.55
2023-05-17T05:54:44.559Z,10.79
2023-05-17T05:57:11.646Z,10.75
2023-05-17T05:59:38.978Z,10.57
2023-05-17T06:02:06.589Z,10.49
2023-05-17T06:04:44.463Z,10.72
2023-05-17T06:07:15.182Z,10.63
2023-05-17T06:09:43.060Z,10.69
2023-05-17T06:12:10.202Z,10.68
2023-05-17T06:14:38.549Z,10.60
2023-05-17T06:17:05.711Z,10.52
2023-05-17T06:19:32.855Z,10.62
2023-05-17T06:22:01.200Z,10.87
2023-05-17T06:24:28.172Z,11.09
2023-05-17T06:26:55.141Z,11.15
2023-05-17T06:29:22.163Z,11.20
2023-05-17T06:31:49.355Z,11.08
2023-05-17T06:34:16.357Z,11.19
2023-05-17T06:36:43.446Z,11.62
2023-05-17T06:39:11.105Z,11.74
2023-05-17T06:41:38.183Z,11.76
2023-05-17T06:44:05.840Z,11.79
2023-05-17T06:46:32.886Z,11.67
2023-05-17T06:49:00.086Z,11.83
2023-05-17T06:51:27.223Z,11.89
2023-05-17T06:53:54.179Z,11.91
2023-05-17T06:56:21.509Z,11.99
2023-05-17T06:58:48.533Z,12.12
2023-05-17T07:01:15.826Z,12.06
2023-05-17T07:03:43.410Z,12.17
2023-05-17T07:06:10.685Z,12.08
2023-05-17T07:08:37.672Z,12.42
2023-05-17T07:11:05.251Z,12.30
2023-05-17T07:13:33.405Z,12.17
2023-05-17T07:16:00.725Z,12.45
2023-05-17T07:18:27.784Z,12.17
2023-05-17T07:20:54.852Z,12.17
2023-05-17T07:23:21.875Z,12.25
2023-05-17T07:25:48.856Z,12.03
2023-05-17T07:28:15.861Z,12.35
2023-05-17T07:30:43.072Z,11.85
2023-05-17T07:33:11.499Z,11.36
2023-05-17T07:35:39.554Z,11.16
2023-05-17T07:38:08.248Z,11.44
2023-05-17T07:40:35.176Z,12.33
2023-05-17T07:43:02.108Z,12.48
2023-05-17T07:45:29.275Z,12.55
2023-05-17T07:47:57.543Z,12.73
2023-05-17T07:50:24.856Z,12.76
2023-05-17T07:52:54.824Z,12.50
2023-05-17T07:55:24.831Z,12.95
2023-05-17T07:57:52.984Z,12.82
2023-05-17T08:00:22.690Z,12.76
2023-05-17T08:02:49.644Z,12.78
2023-05-17T08:05:16.822Z,13.13
2023-05-17T08:07:43.787Z,13.67
2023-05-17T08:10:13.050Z,13.45
2023-05-17T08:12:40.059Z,13.64
2023-05-17T08:15:07.637Z,13.54
2023-05-17T08:17:34.606Z,13.09
2023-05-17T08:20:01.774Z,13.27
2023-05-17T08:22:28.712Z,13.13
2023-05-17T08:24:55.703Z,13.34
2023-05-17T08:27:22.800Z,13.45
2023-05-17T08:29:51.745Z,13.96
2023-05-17T08:32:18.701Z,13.91
2023-05-17T08:34:45.773Z,13.86
2023-05-17T08:37:12.810Z,14.19
2023-05-17T08:39:40.091Z,13.89
2023-05-17T08:42:10.510Z,14.11
2023-05-17T08:44:39.377Z,13.52
2023-05-17T08:47:11.413Z,14.30
2023-05-17T08:49:39.897Z,13.86
2023-05-17T08:52:10.428Z,13.34
2023-05-17T08:54:38.520Z,13.62
2023-05-17T08:57:07.335Z,13.84
2023-05-17T08:59:35.233Z,13.10
2023-05-17T09:02:02.712Z,13.96
2023-05-17T09:04:31.257Z,14.20
2023-05-17T09:06:59.056Z,14.24
2023-05-17T09:09:27.379Z,13.83
2023-05-17T09:11:55.088Z,13.17
2023-05-17T09:14:22.021Z,13.00
2023-05-17T09:16:59.836Z,13.66
2023-05-17T09:19:27.097Z,13.38
2023-05-17T09:22:01.083Z,13.33
2023-05-17T09:24:31.305Z,14.31
2023-05-17T09:27:03.708Z,15.23
2023-05-17T09:29:35.389Z,14.60
2023-05-17T09:32:22.193Z,13.80
2023-05-17T09:34:49.976Z,13.51
2023-05-17T09:37:19.016Z,13.14
2023-05-17T09:39:47.766Z,13.47
2023-05-17T09:42:16.658Z,13.70
2023-05-17T09:44:59.887Z,13.65
2023-05-17T09:47:29.879Z,13.32
2023-05-17T09:50:00.555Z,13.26
2023-05-17T09:52:31.893Z,13.46
2023-05-17T09:55:01.201Z,13.46
2023-05-17T09:57:37.683Z,13.26
2023-05-17T10:00:11.941Z,13.32
2023-05-17T10:02:41.228Z,13.46
2023-05-17T10:05:12.560Z,13.69
2023-05-17T10:07:41.878Z,13.69
2023-05-17T10:10:10.173Z,13.74
2023-05-17T10:12:39.936Z,13.57
2023-05-17T10:15:08.733Z,13.47
2023-05-17T10:17:36.029Z,13.68
2023-05-17T10:20:06.982Z,13.35
2023-05-17T10:22:34.155Z,13.35
2023-05-17T10:25:01.481Z,13.16
2023-05-17T10:27:29.947Z,13.28
2023-05-17T10:29:58.370Z,13.27
2023-05-17T10:32:29.040Z,13.23
2023-05-17T10:35:09.346Z,13.12
2023-05-17T10:37:39.765Z,13.20
2023-05-17T10:40:13.027Z,13.22
2023-05-17T10:42:53.074Z,13.19
2023-05-17T10:45:25.783Z,13.46
2023-05-17T10:47:53.259Z,13.40
2023-05-17T10:50:27.466Z,13.42
2023-05-17T10:52:58.068Z,13.53
2023-05-17T10:55:38.056Z,13.56
2023-05-17T10:58:11.433Z,13.48
2023-05-17T11:00:42.712Z,13.69
2023-05-17T11:03:13.958Z,13.99
2023-05-17T11:05:45.454Z,13.84
2023-05-17T11:08:15.898Z,13.60
2023-05-17T11:11:12.871Z,13.49
2023-05-17T11:13:52.249Z,13.69
2023-05-17T11:16:28.537Z,13.84
2023-05-17T11:19:07.065Z,13.88
2023-05-17T11:21:35.518Z,14.00
2023-05-17T11:24:04.361Z,13.99
2023-05-17T11:26:37.662Z,14.38
2023-05-17T11:29:10.568Z,14.36
2023-05-17T11:31:44.775Z,14.35
2023-05-17T11:34:12.311Z,14.57
2023-05-17T11:36:55.291Z,14.53
2023-05-17T11:39:28.339Z,14.62
2023-05-17T11:41:57.077Z,14.80
2023-05-17T11:44:29.578Z,14.40
2023-05-17T11:47:09.894Z,14.60
2023-05-17T11:49:40.840Z,14.67
2023-05-17T11:52:09.015Z,14.39
2023-05-17T11:54:39.005Z,14.40
2023-05-17T11:57:07.199Z,14.26
2023-05-17T11:59:40.975Z,14.40
2023-05-17T12:02:08.455Z,14.38
2023-05-17T12:04:37.983Z,14.60
2023-05-17T12:07:08.187Z,14.54
2023-05-17T12:09:35.734Z,14.68
2023-05-17T12:12:06.421Z,14.79
2023-05-17T12:14:33.901Z,14.63
2023-05-17T12:17:04.030Z,14.60
2023-05-17T12:19:32.684Z,14.54
2023-05-17T12:22:14.633Z,14.43
2023-05-17T12:24:43.117Z,14.25
2023-05-17T12:27:11.260Z,14.24
2023-05-17T12:29:39.217Z,15.14
2023-05-17T12:32:08.624Z,15.45
2023-05-17T12:34:35.879Z,16.30
2023-05-17T12:37:10.164Z,17.55
2023-05-17T12:39:37.490Z,16.93
2023-05-17T12:42:05.007Z,17.06
2023-05-17T12:44:33.160Z,17.15
2023-05-17T12:47:03.313Z,16.56
2023-05-17T12:49:30.768Z,16.33
2023-05-17T12:52:05.301Z,16.56
2023-05-17T12:54:33.562Z,16.25
2023-05-17T12:57:12.775Z,16.56
2023-05-17T12:59:52.112Z,16.75
2023-05-17T13:02:24.316Z,16.41
2023-05-17T13:04:51.702Z,15.95
2023-05-17T13:07:24.129Z,15.75
2023-05-17T13:09:51.771Z,15.72
2023-05-17T13:12:22.354Z,15.84
2023-05-17T13:14:52.087Z,15.56
2023-05-17T13:17:34.729Z,16.24
2023-05-17T13:20:02.129Z,16.70
2023-05-17T13:22:29.253Z,16.78
2023-05-17T13:24:58.287Z,16.41
2023-05-17T13:27:25.313Z,16.06
2023-05-17T13:29:52.306Z,16.21
2023-05-17T13:32:21.494Z,15.59
2023-05-17T13:34:48.441Z,15.38
2023-05-17T13:37:15.529Z,15.20
2023-05-17T13:39:42.586Z,15.31
2023-05-17T13:42:11.163Z,16.11
2023-05-17T13:44:39.101Z,16.37
2023-05-17T13:47:06.727Z,16.81
2023-05-17T13:49:33.713Z,16.28
2023-05-17T13:52:00.861Z,15.98
2023-05-17T13:54:27.848Z,15.85
2023-05-17T13:56:55.670Z,15.87
2023-05-17T13:59:22.657Z,15.74
2023-05-17T14:01:50.014Z,15.66
2023-05-17T14:04:18.251Z,16.02
2023-05-17T14:06:47.260Z,16.44
2023-05-17T14:09:15.885Z,16.97
2023-05-17T14:11:42.933Z,16.17
2023-05-17T14:14:09.893Z,16.22
2023-05-17T14:16:37.451Z,15.86
2023-05-17T14:19:05.078Z,15.60
2023-05-17T14:21:34.212Z,16.33
2023-05-17T14:24:01.315Z,16.63
2023-05-17T14:26:28.213Z,16.63
2023-05-17T14:28:55.224Z,17.02
2023-05-17T14:31:22.190Z,17.24
2023-05-17T14:33:49.288Z,17.45
2023-05-17T14:36:16.413Z,17.36
2023-05-17T14:38:43.358Z,17.58
2023-05-17T14:41:10.473Z,17.06
2023-05-17T14:43:37.422Z,17.48
2023-05-17T14:46:04.516Z,17.62
2023-05-17T14:48:31.713Z,17.44
2023-05-17T14:50:58.828Z,17.24
2023-05-17T14:53:29.366Z,17.38
2023-05-17T14:55:59.132Z,17.27
2023-05-17T14:58:26.824Z,17.15
2023-05-17T15:01:06.121Z,17.26
2023-05-17T15:03:35.284Z,16.92
2023-05-17T15:06:05.684Z,16.99
2023-05-17T15:08:34.525Z,17.23
2023-05-17T15:11:01.998Z,17.37
2023-05-17T15:13:29.027Z,17.80
2023-05-17T15:15:56.043Z,17.86
2023-05-17T15:18:22.974Z,17.34
2023-05-17T15:20:49.924Z,17.34
2023-05-17T15:23:16.981Z,17.19
2023-05-17T15:25:43.907Z,17.35
2023-05-17T15:28:10.866Z,17.42
2023-05-17T15:30:37.918Z,17.50
2023-05-17T15:33:05.003Z,16.88
2023-05-17T15:35:32.121Z,16.92
2023-05-17T15:37:59.809Z,17.07
2023-05-17T15:40:26.794Z,17.26
2023-05-17T15:42:53.799Z,17.52
2023-05-17T15:45:21.507Z,17.68
2023-05-17T15:47:49.378Z,17.66
2023-05-17T15:50:16.767Z,17.47
2023-05-17T15:52:43.824Z,17.71
2023-05-17T15:55:11.221Z,17.47
2023-05-17T15:57:38.228Z,17.21
2023-05-17T16:00:07.794Z,17.35
2023-05-17T16:02:34.756Z,17.25
2023-05-17T16:05:03.876Z,17.46
2023-05-17T16:07:31.348Z,17.44
2023-05-17T16:09:58.379Z,17.32
2023-05-17T16:12:26.570Z,17.35
2023-05-17T16:14:53.493Z,17.39
2023-05-17T16:17:20.570Z,17.26
2023-05-17T16:19:47.524Z,17.17
2023-05-17T16:22:14.545Z,17.13
2023-05-17T16:24:42.137Z,17.01
2023-05-17T16:27:09.295Z,17.13
2023-05-17T16:29:39.927Z,16.77
2023-05-17T16:32:08.363Z,16.77
2023-05-17T16:34:36.077Z,16.56
2023-05-17T16:37:06.357Z,16.39
2023-05-17T16:39:33.421Z,16.26
2023-05-17T16:42:00.394Z,15.86
2023-05-17T16:44:27.517Z,16.20
2023-05-17T16:46:54.659Z,16.43
2023-05-17T16:49:21.672Z,16.68
2023-05-17T16:51:50.527Z,16.15
2023-05-17T16:54:17.671Z,15.83
2023-05-17T16:56:44.645Z,15.84
2023-05-17T16:59:11.608Z,15.72
2023-05-17T17:01:38.731Z,15.77
2023-05-17T17:04:06.252Z,15.43
2023-05-17T17:06:33.897Z,15.49
2023-05-17T17:09:02.015Z,15.40
2023-05-17T17:11:29.288Z,15.29
2023-05-17T17:13:56.363Z,15.21
2023-05-17T17:16:23.490Z,15.06
2023-05-17T17:18:50.818Z,15.17
2023-05-17T17:21:17.736Z,15.29
2023-05-17T17:23:44.833Z,15.49
2023-05-17T17:26:16.069Z,15.25
2023-05-17T17:28:43.332Z,14.79
2023-05-17T17:31:10.572Z,14.83
2023-05-17T17:33:37.598Z,14.71
2023-05-17T17:36:05.044Z,14.88
2023-05-17T17:38:32.117Z,14.99
2023-05-17T17:40:59.182Z,14.84
2023-05-17T17:43:26.103Z,14.94
2023-05-17T17:45:53.102Z,15.26
2023-05-17T17:48:20.017Z,15.82
2023-05-17T17:50:48.022Z,16.11
2023-05-17T17:53:16.339Z,16.50
2023-05-17T17:55:43.572Z,16.31
2023-05-17T17:58:10.659Z,16.48
2023-05-17T18:00:38.311Z,16.32
2023-05-17T18:03:05.859Z,16.01
2023-05-17T18:05:32.888Z,15.71
2023-05-17T18:07:59.844Z,15.29
2023-05-17T18:10:28.375Z,15.01
2023-05-17T18:12:55.738Z,15.02
2023-05-17T18:15:22.971Z,14.85
2023-05-17T18:17:52.005Z,14.46
2023-05-17T18:20:19.640Z,14.67
2023-05-17T18:22:47.347Z,14.73
2023-05-17T18:25:14.625Z,14.46
2023-05-17T18:27:42.193Z,14.36
2023-05-17T18:30:10.748Z,14.22
2023-05-17T18:32:37.934Z,14.03
2023-05-17T18:35:05.708Z,13.93
2023-05-17T18:37:33.022Z,13.99
2023-05-17T18:40:02.190Z,13.91
2023-05-17T18:42:29.594Z,13.89
2023-05-17T18:44:56.551Z,13.86
2023-05-17T18:47:23.732Z,13.63
2023-05-17T18:49:52.214Z,13.53
2023-05-17T18:52:19.428Z,13.31
2023-05-17T18:54:47.736Z,13.27
2023-05-17T18:57:15.291Z,13.19
2023-05-17T18:59:42.622Z,12.94
2023-05-17T19:02:09.602Z,12.89
2023-05-17T19:04:36.977Z,12.97
2023-05-17T19:07:04.188Z,12.86
2023-05-17T19:09:32.018Z,12.82
2023-05-17T19:11:59.407Z,12.75
2023-05-17T19:14:27.414Z,12.56
2023-05-17T19:16:56.862Z,12.71
2023-05-17T19:19:25.368Z,12.67
2023-05-17T19:21:52.353Z,12.35
2023-05-17T19:24:19.459Z,12.31
2023-05-17T19:26:46.557Z,11.91
2023-05-17T19:29:13.646Z,12.09
2023-05-17T19:31:40.761Z,12.07
2023-05-17T19:34:07.740Z,11.85
2023-05-17T19:36:34.680Z,12.02
2023-05-17T19:39:01.634Z,11.94
2023-05-17T19:41:28.549Z,11.74
2023-05-17T19:43:55.930Z,11.60
2023-05-17T19:46:23.021Z,11.86
2023-05-17T19:48:50.002Z,11.91
2023-05-17T19:51:17.202Z,11.70
2023-05-17T19:53:52.571Z,11.59
2023-05-17T19:56:24.137Z,11.71
2023-05-17T19:58:52.292Z,11.74
2023-05-17T20:01:19.356Z,11.72
2023-05-17T20:03:46.464Z,11.80
2023-05-17T20:06:15.056Z,11.78
2023-05-17T20:08:42.472Z,11.45
2023-05-17T20:11:09.996Z,11.38
2023-05-17T20:13:40.324Z,11.50
2023-05-17T20:16:14.568Z,11.49
2023-05-17T20:18:45.530Z,11.58
2023-05-17T20:21:18.173Z,11.38
2023-05-17T20:23:46.148Z,11.22
2023-05-17T20:26:17.141Z,11.30
2023-05-17T20:28:44.815Z,11.21
2023-05-17T20:31:12.173Z,11.30
2023-05-17T20:33:39.240Z,11.46
2023-05-17T20:36:06.457Z,11.37
2023-05-17T20:38:33.474Z,11.18
2023-05-17T20:41:00.816Z,11.09
2023-05-17T20:43:28.993Z,11.07
2023-05-17T20:45:56.600Z,11.29
2023-05-17T20:48:23.615Z,11.34
2023-05-17T20:50:50.706Z,11.17
2023-05-17T20:53:17.681Z,11.03
2023-05-17T20:55:44.707Z,11.17
2023-05-17T20:58:11.727Z,11.38
2023-05-17T21:00:38.740Z,11.43
2023-05-17T21:03:06.105Z,10.68
2023-05-17T21:05:36.147Z,10.64
2023-05-17T21:08:03.337Z,10.72
2023-05-17T21:10:30.677Z,10.54
2023-05-17T21:12:57.906Z,10.65
2023-05-17T21:15:25.221Z,10.63
2023-05-17T21:17:53.262Z,10.64
2023-05-17T21:20:21.463Z,10.59
2023-05-17T21:22:49.954Z,10.76
2023-05-17T21:25:17.984Z,10.49
2023-05-17T21:27:45.392Z,10.37
2023-05-17T21:30:12.547Z,10.18
2023-05-17T21:32:39.537Z,9.87
2023-05-17T21:35:06.991Z,9.47
2023-05-17T21:37:34.450Z,9.22
2023-05-17T21:40:01.460Z,9.15
2023-05-17T21:42:29.379Z,9.27
2023-05-17T21:44:56.381Z,9.35
2023-05-17T21:47:24.031Z,9.51
2023-05-17T21:49:51.096Z,9.58
2023-05-17T21:52:18.206Z,9.12
2023-05-17T21:54:45.316Z,8.59
2023-05-17T21:57:12.533Z,8.68
2023-05-17T21:59:39.427Z,8.60
2023-05-17T22:02:08.539Z,8.59
2023-05-17T22:04:36.157Z,8.57
2023-05-17T22:07:03.186Z,8.52
2023-05-17T22:09:30.153Z,8.34
2023-05-17T22:11:58.736Z,7.95
2023-05-17T22:14:27.432Z,7.62
2023-05-17T22:16:56.019Z,7.50
2023-05-17T22:19:23.511Z,7.47
2023-05-17T22:21:51.215Z,7.41
2023-05-17T22:24:19.933Z,7.27
2023-05-17T22:26:47.153Z,7.56
2023-05-17T22:29:14.142Z,7.43
2023-05-17T22:31:41.093Z,7.71
2023-05-17T22:34:08.058Z,8.00
2023-05-17T22:36:34.957Z,8.04
2023-05-17T22:39:01.931Z,7.83
2023-05-17T22:41:29.028Z,7.82
2023-05-17T22:43:56.135Z,7.93
2023-05-17T22:46:24.341Z,7.72
2023-05-17T22:48:52.753Z,7.78
2023-05-17T22:51:19.742Z,7.54
2023-05-17T22:53:47.094Z,7.67
2023-05-17T22:56:14.039Z,7.81
2023-05-17T22:58:41.177Z,7.94
2023-05-17T23:01:08.323Z,7.90
2023-05-17T23:03:35.316Z,8.04
2023-05-17T23:06:03.202Z,8.01
2023-05-17T23:08:30.627Z,8.05
2023-05-17T23:10:58.467Z,7.61
2023-05-17T23:13:26.633Z,7.67
2023-05-17T23:15:53.905Z,7.30
2023-05-17T23:18:21.094Z,7.53
2023-05-17T23:20:48.961Z,7.40
2023-05-17T23:23:16.447Z,7.19
2023-05-17T23:25:48.403Z,7.13
2023-05-17T23:28:15.351Z,7.24
2023-05-17T23:30:44.439Z,7.25
2023-05-17T23:33:11.618Z,7.31
2023-05-17T23:35:38.557Z,7.48
2023-05-17T23:38:07.136Z,7.46
2023-05-17T23:40:34.391Z,7.74
2023-05-17T23:43:01.366Z,7.52
2023-05-17T23:45:29.774Z,7.69
2023-05-17T23:48:00.290Z,7.55
2023-05-17T23:50:27.568Z,7.86
2023-05-17T23:52:54.525Z,7.78
2023-05-17T23:55:22.531Z,7.61
2023-05-17T23:57:49.689Z,7.59
